createdAt,value
2022-12-27T00:00:37.809Z,99114.50
2022-12-27T00:03:05.277Z,99105.69
2022-12-27T00:05:32.688Z,99122.69
2022-12-27T00:08:00.103Z,99123.75
2022-12-27T00:10:27.939Z,99129.78
2022-12-27T00:12:55.320Z,99140.44
2022-12-27T00:15:22.695Z,99144.75
2022-12-27T00:17:50.841Z,99155.69
2022-12-27T00:20:18.315Z,99164.06
2022-12-27T00:22:45.611Z,99157.13
2022-12-27T00:25:13.009Z,99170.81
2022-12-27T00:27:40.423Z,99178.81
2022-12-27T00:30:08.660Z,99182.72
2022-12-27T00:32:36.264Z,99194.56
2022-12-27T00:35:03.744Z,99195.75
2022-12-27T00:37:31.059Z,99214.56
2022-12-27T00:39:59.906Z,99209.09
2022-12-27T00:42:27.207Z,99215.31
2022-12-27T00:44:54.664Z,99231.38
2022-12-27T00:47:22.065Z,99238.31
2022-12-27T00:49:49.460Z,99239.38
2022-12-27T00:52:16.838Z,99251.31
2022-12-27T00:54:44.213Z,99258.72
2022-12-27T00:57:11.582Z,99260.88
2022-12-27T00:59:38.967Z,99274.38
2022-12-27T01:02:06.350Z,99274.41
2022-12-27T01:04:33.795Z,99290.59
2022-12-27T01:07:01.118Z,99295.59
2022-12-27T01:09:28.529Z,99294.28
2022-12-27T01:11:55.899Z,99311.09
2022-12-27T01:14:23.323Z,99312.84
2022-12-27T01:16:50.729Z,99323.91
2022-12-27T01:19:18.211Z,99326.69
2022-12-27T01:21:45.556Z,99328.09
2022-12-27T01:24:12.937Z,99339.56
2022-12-27T01:26:41.513Z,99342.84
2022-12-27T01:29:12.456Z,99358.03
2022-12-27T01:31:39.900Z,99356.63
2022-12-27T01:34:07.262Z,99358.53
2022-12-27T01:36:34.618Z,99354.16
2022-12-27T01:39:02.151Z,99359.53
2022-12-27T01:41:53.671Z,99364.56
2022-12-27T01:44:39.108Z,99367.75
2022-12-27T01:47:33.947Z,99372.97
2022-12-27T01:50:37.312Z,99371.31
2022-12-27T01:53:13.452Z,99368.00
2022-12-27T01:55:50.757Z,99380.53
2022-12-27T01:58:27.141Z,99380.41
2022-12-27T02:00:54.808Z,99380.72
2022-12-27T02:03:48.143Z,99380.84
2022-12-27T02:06:16.181Z,99382.72
2022-12-27T02:09:09.486Z,99383.72
2022-12-27T02:11:52.599Z,99393.44
2022-12-27T02:14:27.911Z,99392.25
2022-12-27T02:16:57.827Z,99395.47
2022-12-27T02:19:28.149Z,99404.03
2022-12-27T02:22:29.467Z,99404.66
2022-12-27T02:25:18.288Z,99406.53
2022-12-27T02:27:54.535Z,99399.63
2022-12-27T02:30:21.982Z,99395.50
2022-12-27T02:32:57.792Z,99404.66
2022-12-27T02:35:45.238Z,99406.94
2022-12-27T02:38:19.774Z,99410.72
2022-12-27T02:41:05.984Z,99409.47
2022-12-27T02:43:52.239Z,99409.31
2022-12-27T02:46:43.107Z,99417.94
2022-12-27T02:49:48.973Z,99405.75
2022-12-27T02:52:43.990Z,99419.06
2022-12-27T02:55:26.112Z,99411.16
2022-12-27T02:58:06.389Z,99421.47
2022-12-27T03:01:04.873Z,99413.44
2022-12-27T03:03:45.126Z,99415.81
2022-12-27T03:06:39.782Z,99420.50
2022-12-27T03:09:49.623Z,99426.09
2022-12-27T03:12:55.261Z,99423.34
2022-12-27T03:15:55.639Z,99418.00
2022-12-27T03:18:26.149Z,99414.75
2022-12-27T03:21:12.915Z,99420.03
2022-12-27T03:24:01.350Z,99417.22
2022-12-27T03:26:30.474Z,99410.84
2022-12-27T03:29:17.226Z,99413.31
2022-12-27T03:32:05.183Z,99426.34
2022-12-27T03:34:39.819Z,99416.63
2022-12-27T03:37:44.857Z,99421.13
2022-12-27T03:40:19.684Z,99429.91
2022-12-27T03:43:10.862Z,99427.50
2022-12-27T03:46:33.469Z,99427.91
2022-12-27T03:49:03.846Z,99423.34
2022-12-27T03:51:36.180Z,99420.75
2022-12-27T03:54:09.513Z,99424.19
2022-12-27T03:56:37.506Z,99429.56
2022-12-27T03:59:05.383Z,99421.66
2022-12-27T04:01:32.719Z,99421.13
2022-12-27T04:03:59.657Z,99418.72
2022-12-27T04:06:26.625Z,99423.94
2022-12-27T04:09:12.230Z,99423.72
2022-12-27T04:11:57.393Z,99423.97
2022-12-27T04:14:42.991Z,99426.47
2022-12-27T04:17:28.536Z,99429.75
2022-12-27T04:20:13.757Z,99424.00
2022-12-27T04:22:59.090Z,99429.75
2022-12-27T04:25:44.442Z,99428.94
2022-12-27T04:28:31.003Z,99431.06
2022-12-27T04:31:16.179Z,99422.81
2022-12-27T04:34:01.603Z,99426.06
2022-12-27T04:36:28.498Z,99420.94
2022-12-27T04:38:55.449Z,99423.34
2022-12-27T04:41:40.728Z,99424.34
2022-12-27T04:44:26.277Z,99426.66
2022-12-27T04:47:11.792Z,99430.56
2022-12-27T04:49:57.178Z,99438.34
2022-12-27T04:52:43.469Z,99425.94
2022-12-27T04:55:28.037Z,99431.31
2022-12-27T04:57:56.572Z,99432.91
2022-12-27T05:00:47.797Z,99436.28
2022-12-27T05:03:21.918Z,99443.44
2022-12-27T05:05:50.873Z,99450.63
2022-12-27T05:08:38.754Z,99444.22
2022-12-27T05:11:27.258Z,99453.38
2022-12-27T05:14:00.002Z,99459.56
2022-12-27T05:16:38.471Z,99456.44
2022-12-27T05:19:07.955Z,99459.84
2022-12-27T05:22:03.249Z,99467.28
2022-12-27T05:24:49.632Z,99465.63
2022-12-27T05:27:17.818Z,99470.94
2022-12-27T05:29:45.955Z,99475.66
2022-12-27T05:32:13.765Z,99471.84
2022-12-27T05:34:41.487Z,99478.97
2022-12-27T05:37:08.836Z,99479.09
2022-12-27T05:39:35.904Z,99481.44
2022-12-27T05:42:03.347Z,99479.59
2022-12-27T05:44:30.494Z,99483.25
2022-12-27T05:46:57.517Z,99486.28
2022-12-27T05:49:24.475Z,99480.13
2022-12-27T05:51:51.483Z,99481.69
2022-12-27T05:54:18.422Z,99482.91
2022-12-27T05:56:45.409Z,99485.97
2022-12-27T05:59:12.375Z,99484.66
2022-12-27T06:01:39.889Z,99481.81
2022-12-27T06:04:06.915Z,99479.53
2022-12-27T06:06:34.710Z,99478.69
2022-12-27T06:09:01.664Z,99475.34
2022-12-27T06:11:28.612Z,99477.50
2022-12-27T06:13:55.722Z,99472.31
2022-12-27T06:16:24.091Z,99484.81
2022-12-27T06:18:51.103Z,99481.38
2022-12-27T06:21:20.595Z,99482.91
2022-12-27T06:23:48.556Z,99490.56
2022-12-27T06:26:21.402Z,99493.66
2022-12-27T06:28:50.108Z,99504.22
2022-12-27T06:31:20.504Z,99495.09
2022-12-27T06:33:49.306Z,99500.75
2022-12-27T06:36:19.612Z,99495.97
2022-12-27T06:38:47.571Z,99491.06
2022-12-27T06:41:19.859Z,99492.28
2022-12-27T06:43:47.801Z,99495.25
2022-12-27T06:46:18.320Z,99497.22
2022-12-27T06:48:47.179Z,99501.13
2022-12-27T06:51:16.011Z,99500.28
2022-12-27T06:53:47.103Z,99496.94
2022-12-27T06:56:16.898Z,99502.81
2022-12-27T06:58:44.823Z,99505.34
2022-12-27T07:01:18.587Z,99506.66
2022-12-27T07:03:53.071Z,99512.00
2022-12-27T07:06:21.381Z,99511.56
2022-12-27T07:08:49.603Z,99507.28
2022-12-27T07:11:17.687Z,99515.53
2022-12-27T07:13:50.818Z,99521.59
2022-12-27T07:16:22.576Z,99516.34
2022-12-27T07:18:50.688Z,99524.19
2022-12-27T07:21:20.813Z,99523.06
2022-12-27T07:23:48.910Z,99530.81
2022-12-27T07:26:18.900Z,99536.75
2022-12-27T07:28:46.475Z,99538.16
2022-12-27T07:31:16.933Z,99538.59
2022-12-27T07:33:44.457Z,99525.53
2022-12-27T07:36:23.275Z,99538.22
2022-12-27T07:38:50.741Z,99537.16
2022-12-27T07:41:18.711Z,99531.34
2022-12-27T07:43:46.579Z,99525.13
2022-12-27T07:46:19.337Z,99533.31
2022-12-27T07:48:47.342Z,99532.03
2022-12-27T07:51:16.237Z,99537.50
2022-12-27T07:53:44.187Z,99532.16
2022-12-27T07:56:23.408Z,99539.56
2022-12-27T07:58:54.034Z,99528.47
2022-12-27T08:01:22.619Z,99530.84
2022-12-27T08:03:49.905Z,99527.97
2022-12-27T08:06:31.331Z,99521.34
2022-12-27T08:09:03.952Z,99526.75
2022-12-27T08:11:31.122Z,99525.94
2022-12-27T08:13:58.184Z,99522.81
2022-12-27T08:16:26.606Z,99519.22
2022-12-27T08:18:53.955Z,99527.06
2022-12-27T08:21:20.995Z,99519.09
2022-12-27T08:23:48.005Z,99521.69
2022-12-27T08:26:15.491Z,99520.59
2022-12-27T08:28:42.502Z,99528.84
2022-12-27T08:31:11.509Z,99522.91
2022-12-27T08:33:41.644Z,99531.22
2022-12-27T08:38:58.345Z,99537.78
2022-12-27T08:41:25.295Z,99552.69
2022-12-27T08:43:52.257Z,99546.69
2022-12-27T08:46:19.651Z,99552.56
2022-12-27T08:48:51.582Z,99559.88
2022-12-27T08:51:31.240Z,99566.69
2022-12-27T08:54:02.726Z,99573.78
2022-12-27T08:56:30.058Z,99581.41
2022-12-27T08:58:57.016Z,99585.19
2022-12-27T09:01:25.833Z,99577.03
2022-12-27T09:03:53.251Z,99579.78
2022-12-27T09:06:24.777Z,99570.69
2022-12-27T09:08:54.585Z,99567.81
2022-12-27T09:11:31.634Z,99579.53
2022-12-27T09:14:04.965Z,99573.84
2022-12-27T09:16:36.123Z,99579.78
2022-12-27T09:19:04.093Z,99585.25
2022-12-27T09:21:34.018Z,99591.03
2022-12-27T09:24:01.189Z,99596.56
2022-12-27T09:26:30.638Z,99602.84
2022-12-27T09:28:59.004Z,99601.56
2022-12-27T09:31:27.030Z,99596.31
2022-12-27T09:33:54.806Z,99597.00
2022-12-27T09:36:25.605Z,99595.91
2022-12-27T09:38:54.268Z,99596.22
2022-12-27T09:42:45.092Z,99603.31
2022-12-27T09:44:38.832Z,99601.38
2022-12-27T09:47:24.029Z,99602.56
2022-12-27T09:50:16.486Z,99603.63
2022-12-27T09:53:03.256Z,99601.00
2022-12-27T09:55:50.239Z,99599.81
2022-12-27T09:58:48.351Z,99603.22
2022-12-27T10:01:24.666Z,99591.97
2022-12-27T10:03:55.193Z,99598.00
2022-12-27T10:06:48.470Z,99584.41
2022-12-27T10:09:41.310Z,99586.16
2022-12-27T10:12:29.935Z,99587.50
2022-12-27T10:15:29.212Z,99597.03
2022-12-27T10:18:33.777Z,99590.84
2022-12-27T10:21:22.240Z,99586.16
2022-12-27T10:23:57.291Z,99589.53
2022-12-27T10:26:24.742Z,99580.13
2022-12-27T10:29:03.884Z,99574.69
2022-12-27T10:31:31.794Z,99576.22
2022-12-27T10:34:02.260Z,99581.50
2022-12-27T10:36:31.859Z,99578.44
2022-12-27T10:39:02.431Z,99578.84
2022-12-27T10:41:54.347Z,99579.13
2022-12-27T10:44:23.871Z,99585.72
2022-12-27T10:46:53.153Z,99593.91
2022-12-27T10:49:26.378Z,99582.72
2022-12-27T10:51:57.203Z,99576.59
2022-12-27T10:54:27.534Z,99571.88
2022-12-27T10:56:56.078Z,99567.56
2022-12-27T10:59:24.520Z,99575.28
2022-12-27T11:02:01.731Z,99571.50
2022-12-27T11:04:30.973Z,99575.56
2022-12-27T11:07:04.060Z,99572.16
2022-12-27T11:09:50.747Z,99576.22
2022-12-27T11:12:29.190Z,99584.81
2022-12-27T11:14:59.467Z,99582.38
2022-12-27T11:17:45.243Z,99573.91
2022-12-27T11:20:18.832Z,99575.00
2022-12-27T11:23:08.948Z,99575.09
2022-12-27T11:25:37.634Z,99564.66
2022-12-27T11:28:22.103Z,99570.66
2022-12-27T11:30:55.766Z,99566.47
2022-12-27T11:33:37.455Z,99573.91
2022-12-27T11:36:06.274Z,99564.47
2022-12-27T11:38:36.677Z,99556.03
2022-12-27T11:41:07.881Z,99558.31
2022-12-27T11:43:47.863Z,99550.88
2022-12-27T11:46:29.519Z,99555.31
2022-12-27T11:48:58.778Z,99550.97
2022-12-27T11:51:29.994Z,99546.81
2022-12-27T11:54:03.319Z,99542.03
2022-12-27T11:56:32.621Z,99553.22
2022-12-27T11:59:25.717Z,99551.16
2022-12-27T12:02:16.568Z,99546.94
2022-12-27T12:05:10.002Z,99550.22
2022-12-27T12:07:40.061Z,99557.25
2022-12-27T12:10:35.284Z,99552.47
2022-12-27T12:13:33.082Z,99555.78
2022-12-27T12:16:04.373Z,99554.25
2022-12-27T12:19:07.380Z,99555.72
2022-12-27T12:21:43.891Z,99552.38
2022-12-27T12:24:48.732Z,99555.88
2022-12-27T12:27:48.016Z,99557.75
2022-12-27T12:30:49.187Z,99546.44
2022-12-27T12:33:52.460Z,99540.91
2022-12-27T12:36:41.040Z,99537.44
2022-12-27T12:39:17.138Z,99541.84
2022-12-27T12:42:03.183Z,99536.56
2022-12-27T12:44:46.209Z,99538.44
2022-12-27T12:47:38.433Z,99532.84
2022-12-27T12:50:31.777Z,99527.78
2022-12-27T12:53:27.103Z,99528.28
2022-12-27T12:56:11.341Z,99532.69
2022-12-27T12:59:16.090Z,99527.75
2022-12-27T13:02:06.155Z,99526.91
2022-12-27T13:04:52.411Z,99522.09
2022-12-27T13:07:39.281Z,99521.03
2022-12-27T13:10:10.143Z,99522.75
2022-12-27T13:12:59.819Z,99524.16
2022-12-27T13:15:41.108Z,99528.00
2022-12-27T13:18:30.497Z,99526.19
2022-12-27T13:21:21.117Z,99521.31
2022-12-27T13:24:07.313Z,99519.88
2022-12-27T13:26:57.803Z,99517.69
2022-12-27T13:29:53.155Z,99515.06
2022-12-27T13:33:07.962Z,99510.06
2022-12-27T13:36:16.141Z,99505.28
2022-12-27T13:39:07.288Z,99499.19
2022-12-27T13:42:19.288Z,99500.91
2022-12-27T13:45:23.804Z,99499.03
2022-12-27T13:48:20.735Z,99497.22
2022-12-27T13:51:31.553Z,99495.78
2022-12-27T13:54:47.394Z,99492.63
2022-12-27T13:57:53.622Z,99487.94
2022-12-27T14:00:22.706Z,99487.88
2022-12-27T14:03:32.856Z,99503.03
2022-12-27T14:06:11.649Z,99493.84
2022-12-27T14:09:03.053Z,99490.03
2022-12-27T14:11:56.461Z,99483.94
2022-12-27T14:14:27.264Z,99494.84
2022-12-27T14:17:31.586Z,99490.00
2022-12-27T14:20:27.945Z,99484.91
2022-12-27T14:23:13.347Z,99501.13
2022-12-27T14:26:10.212Z,99496.28
2022-12-27T14:29:17.233Z,99501.31
2022-12-27T14:32:08.486Z,99503.78
2022-12-27T14:35:25.759Z,99503.25
2022-12-27T14:38:16.118Z,99504.88
2022-12-27T14:41:20.584Z,99502.31
2022-12-27T14:44:28.330Z,99508.59
2022-12-27T14:47:19.180Z,99506.97
2022-12-27T14:50:08.051Z,99501.00
2022-12-27T14:53:07.501Z,99509.84
2022-12-27T14:55:57.491Z,99510.41
2022-12-27T14:58:48.580Z,99505.22
2022-12-27T15:01:31.301Z,99511.91
2022-12-27T15:04:01.018Z,99511.16
2022-12-27T15:06:55.794Z,99510.16
2022-12-27T15:09:43.581Z,99513.41
2022-12-27T15:12:36.491Z,99503.69
2022-12-27T15:15:27.506Z,99498.16
2022-12-27T15:18:25.698Z,99496.22
2022-12-27T15:21:06.928Z,99499.34
2022-12-27T15:23:53.307Z,99501.78
2022-12-27T15:26:48.275Z,99505.00
2022-12-27T15:29:37.451Z,99501.22
2022-12-27T15:32:35.834Z,99497.94
2022-12-27T15:35:28.560Z,99495.53
2022-12-27T15:38:17.272Z,99482.59
2022-12-27T15:41:09.151Z,99480.19
2022-12-27T15:43:57.523Z,99480.47
2022-12-27T15:47:07.196Z,99475.72
2022-12-27T15:50:14.542Z,99479.69
2022-12-27T15:53:03.591Z,99479.13
2022-12-27T15:56:11.603Z,99477.94
2022-12-27T15:58:38.993Z,99474.06
2022-12-27T16:01:25.232Z,99473.44
2022-12-27T16:03:54.877Z,99471.94
2022-12-27T16:06:33.850Z,99475.75
2022-12-27T16:09:24.739Z,99475.53
2022-12-27T16:12:32.189Z,99470.69
2022-12-27T16:15:43.144Z,99468.38
2022-12-27T16:18:18.727Z,99466.56
2022-12-27T16:21:22.907Z,99458.69
2022-12-27T16:23:55.935Z,99466.03
2022-12-27T16:26:28.582Z,99449.50
2022-12-27T16:29:15.403Z,99449.63
2022-12-27T16:31:48.422Z,99460.13
2022-12-27T16:34:24.938Z,99460.00
2022-12-27T16:36:54.859Z,99466.56
2022-12-27T16:39:48.999Z,99459.34
2022-12-27T16:42:20.745Z,99461.25
2022-12-27T16:44:58.248Z,99455.34
2022-12-27T16:48:08.722Z,99456.31
2022-12-27T16:50:44.477Z,99445.13
2022-12-27T16:53:43.192Z,99449.47
2022-12-27T16:56:24.529Z,99455.34
2022-12-27T16:58:52.092Z,99453.59
2022-12-27T17:01:19.062Z,99460.66
2022-12-27T17:03:49.361Z,99453.84
2022-12-27T17:06:32.037Z,99443.44
2022-12-27T17:09:08.847Z,99442.63
2022-12-27T17:11:47.997Z,99442.75
2022-12-27T17:14:32.059Z,99434.38
2022-12-27T17:17:04.308Z,99431.47
2022-12-27T17:19:40.361Z,99423.31
2022-12-27T17:22:15.047Z,99420.22
2022-12-27T17:24:45.291Z,99411.84
2022-12-27T17:27:21.494Z,99417.22
2022-12-27T17:30:26.587Z,99412.91
2022-12-27T17:32:56.353Z,99416.53
2022-12-27T17:36:06.683Z,99409.66
2022-12-27T17:39:19.934Z,99407.63
2022-12-27T17:42:11.033Z,99409.44
2022-12-27T17:45:08.781Z,99410.06
2022-12-27T17:47:45.352Z,99407.63
2022-12-27T17:50:20.845Z,99411.25
2022-12-27T17:53:38.918Z,99406.97
2022-12-27T17:56:34.587Z,99405.25
2022-12-27T17:59:14.250Z,99385.38
2022-12-27T18:01:47.974Z,99388.38
2022-12-27T18:04:48.169Z,99401.34
2022-12-27T18:07:23.049Z,99388.34
2022-12-27T18:09:53.753Z,99381.06
2022-12-27T18:12:32.337Z,99386.44
2022-12-27T18:15:03.362Z,99386.06
2022-12-27T18:17:46.998Z,99377.16
2022-12-27T18:20:51.543Z,99373.09
2022-12-27T18:23:18.886Z,99370.91
2022-12-27T18:25:45.714Z,99378.16
2022-12-27T18:28:33.348Z,99367.25
2022-12-27T18:31:29.088Z,99367.06
2022-12-27T18:34:14.638Z,99374.19
2022-12-27T18:36:49.986Z,99367.28
2022-12-27T18:39:39.262Z,99364.44
2022-12-27T18:42:18.966Z,99363.97
2022-12-27T18:44:53.067Z,99355.47
2022-12-27T18:47:29.292Z,99364.78
2022-12-27T18:50:00.785Z,99350.41
2022-12-27T18:52:38.806Z,99355.06
2022-12-27T18:55:19.069Z,99356.44
2022-12-27T18:57:48.267Z,99364.72
2022-12-27T19:00:16.909Z,99364.91
2022-12-27T19:02:44.800Z,99364.84
2022-12-27T19:05:21.098Z,99359.59
2022-12-27T19:08:09.009Z,99362.69
2022-12-27T19:10:36.524Z,99363.63
2022-12-27T19:13:04.088Z,99352.41
2022-12-27T19:15:44.869Z,99342.31
2022-12-27T19:18:38.695Z,99342.38
2022-12-27T19:21:06.797Z,99323.44
2022-12-27T19:23:39.583Z,99322.19
2022-12-27T19:26:18.372Z,99328.19
2022-12-27T19:28:57.476Z,99329.75
2022-12-27T19:31:24.501Z,99333.41
2022-12-27T19:34:01.155Z,99330.84
2022-12-27T19:36:41.125Z,99326.97
2022-12-27T19:39:22.740Z,99320.63
2022-12-27T19:41:50.821Z,99323.25
2022-12-27T19:44:18.888Z,99324.28
2022-12-27T19:46:46.446Z,99316.81
2022-12-27T19:49:40.989Z,99322.47
2022-12-27T19:52:00.387Z,99322.19
2022-12-27T19:54:27.894Z,99309.44
2022-12-27T19:56:55.557Z,99302.53
2022-12-27T19:59:25.381Z,99301.22
2022-12-27T20:01:52.707Z,99291.06
2022-12-27T20:04:19.940Z,99295.97
2022-12-27T20:06:48.804Z,99291.78
2022-12-27T20:09:18.883Z,99283.25
2022-12-27T20:11:48.688Z,99279.41
2022-12-27T20:14:17.471Z,99279.28
2022-12-27T20:16:46.189Z,99284.81
2022-12-27T20:19:20.007Z,99280.09
2022-12-27T20:21:47.311Z,99274.31
2022-12-27T20:24:14.753Z,99274.25
2022-12-27T20:26:42.943Z,99278.97
2022-12-27T20:29:11.513Z,99277.69
2022-12-27T20:31:44.760Z,99278.69
2022-12-27T20:34:12.978Z,99278.19
2022-12-27T20:36:41.454Z,99273.16
2022-12-27T20:39:08.604Z,99273.22
2022-12-27T20:41:36.663Z,99277.28
2022-12-27T20:44:04.253Z,99273.34
2022-12-27T20:46:31.325Z,99273.00
2022-12-27T20:48:58.697Z,99273.81
2022-12-27T20:51:28.265Z,99276.69
2022-12-27T20:53:58.099Z,99274.06
2022-12-27T20:56:25.643Z,99274.06
2022-12-27T20:58:53.021Z,99271.94
2022-12-27T21:01:24.082Z,99261.44
2022-12-27T21:03:51.536Z,99267.66
2022-12-27T21:06:28.176Z,99264.91
2022-12-27T21:08:57.557Z,99258.56
2022-12-27T21:11:31.308Z,99260.66
2022-12-27T21:14:04.035Z,99250.13
2022-12-27T21:16:34.474Z,99261.50
2022-12-27T21:19:03.584Z,99253.41
2022-12-27T21:21:32.281Z,99250.31
2022-12-27T21:23:59.682Z,99260.16
2022-12-27T21:26:33.901Z,99254.34
2022-12-27T21:29:03.676Z,99254.19
2022-12-27T21:31:31.784Z,99251.28
2022-12-27T21:33:59.837Z,99260.13
2022-12-27T21:36:29.561Z,99248.16
2022-12-27T21:38:57.607Z,99241.03
2022-12-27T21:41:27.091Z,99244.66
2022-12-27T21:43:54.674Z,99242.06
2022-12-27T21:46:25.089Z,99244.56
2022-12-27T21:49:04.645Z,99244.69
2022-12-27T21:51:33.210Z,99248.69
2022-12-27T21:54:00.694Z,99248.41
2022-12-27T21:56:28.418Z,99248.31
2022-12-27T21:58:55.792Z,99250.50
2022-12-27T22:01:25.725Z,99249.97
2022-12-27T22:03:54.398Z,99245.72
2022-12-27T22:06:26.594Z,99244.81
2022-12-27T22:08:57.287Z,99245.00
2022-12-27T22:11:25.595Z,99254.94
2022-12-27T22:13:53.519Z,99241.13
2022-12-27T22:16:40.318Z,99242.38
2022-12-27T22:19:09.226Z,99242.63
2022-12-27T22:21:37.301Z,99231.13
2022-12-27T22:24:05.475Z,99230.59
2022-12-27T22:26:37.276Z,99235.19
2022-12-27T22:29:05.660Z,99227.16
2022-12-27T22:31:38.133Z,99227.44
2022-12-27T22:34:06.501Z,99229.00
2022-12-27T22:36:34.502Z,99229.91
2022-12-27T22:39:02.503Z,99230.81
2022-12-27T22:41:32.229Z,99219.75
2022-12-27T22:44:05.286Z,99227.22
2022-12-27T22:46:58.733Z,99228.22
2022-12-27T22:49:20.822Z,99220.50
2022-12-27T22:51:48.184Z,99216.38
2022-12-27T22:54:15.490Z,99215.63
2022-12-27T22:56:43.534Z,99204.31
2022-12-27T22:59:12.699Z,99206.34
2022-12-27T23:01:41.459Z,99206.16
2022-12-27T23:04:10.844Z,99204.81
2022-12-27T23:06:38.989Z,99187.25
2022-12-27T23:09:06.775Z,99192.31
2022-12-27T23:11:36.796Z,99199.25
2022-12-27T23:14:11.345Z,99199.38
2022-12-27T23:16:41.548Z,99199.75
2022-12-27T23:19:09.598Z,99189.03
2022-12-27T23:21:37.391Z,99191.97
2022-12-27T23:24:05.678Z,99184.41
2022-12-27T23:26:33.290Z,99187.34
2022-12-27T23:29:00.692Z,99191.53
2022-12-27T23:31:28.539Z,99186.47
2022-12-27T23:33:56.297Z,99184.97
2022-12-27T23:36:23.707Z,99182.75
2022-12-27T23:38:51.152Z,99165.69
2022-12-27T23:41:23.707Z,99176.50
2022-12-27T23:43:54.444Z,99174.88
2022-12-27T23:46:30.010Z,99171.28
2022-12-27T23:49:00.042Z,99181.16
2022-12-27T23:51:28.660Z,99180.25
2022-12-27T23:53:55.747Z,99181.28
2022-12-27T23:56:32.317Z,99181.28
2022-12-27T23:59:01.505Z,99172.63
